Terminal Aerodrome Forecast
Issued by NWS

Home | Current Version | Previous Version | Text Only | Print | Product List | Glossary On
Versions: 1 2 3 4 5 6 7 8 9 10 11 12 13 14 15 16 17 18 19 20 21 22 23 24 25 26 27 28 29 30 31 32 33 34
000
FTUS43 KICT 232335
TAFHUT
TAF
KHUT 232335Z 2400/2424 VRB05KT P6SM VCSH SCT015 BKN035
      TEMPO 2400/2402 BKN015
     FM241000 VRB03KT 4SM BR SCT030
     FM241300 VRB03KT P6SM SCT050
     FM241500 VRB03KT P6SM SCT100=

USA.gov is the U.S. government's official web portal to all federal, state and local government web resources and services.